createdAt,value
2023-03-26T00:02:13.324Z,99.90
2023-03-26T00:05:00.169Z,99.90
2023-03-26T00:07:47.197Z,99.90
2023-03-26T00:10:34.524Z,99.90
2023-03-26T00:13:21.450Z,99.90
2023-03-26T00:16:08.506Z,99.90
2023-03-26T00:18:56.300Z,99.90
2023-03-26T00:21:43.028Z,99.90
2023-03-26T00:24:30.556Z,99.90
2023-03-26T00:27:17.681Z,99.90
2023-03-26T00:30:05.575Z,99.90
2023-03-26T00:32:53.903Z,99.90
2023-03-26T00:35:43.358Z,99.90
2023-03-26T00:38:30.943Z,99.90
2023-03-26T00:41:22.790Z,99.90
2023-03-26T00:44:10.548Z,99.90
2023-03-26T00:46:57.329Z,99.90
2023-03-26T00:49:46.738Z,99.90
2023-03-26T00:52:33.594Z,99.90
2023-03-26T00:55:20.407Z,99.90
2023-03-26T00:58:12.833Z,99.90
2023-03-26T01:01:05.458Z,99.90
2023-03-26T01:04:08.142Z,99.90
2023-03-26T01:06:58.573Z,99.90
2023-03-26T01:09:50.407Z,99.90
2023-03-26T01:12:37.334Z,99.90
2023-03-26T01:15:29.983Z,99.90
2023-03-26T01:18:26.365Z,99.90
2023-03-26T01:21:14.677Z,99.90
2023-03-26T01:24:06.701Z,99.90
2023-03-26T01:27:11.645Z,99.90
2023-03-26T01:30:33.610Z,99.90
2023-03-26T01:33:34.079Z,99.90
2023-03-26T01:36:35.938Z,99.90
2023-03-26T01:39:38.958Z,99.90
2023-03-26T01:42:52.183Z,99.90
2023-03-26T01:45:41.340Z,99.90
2023-03-26T01:48:36.281Z,99.90
2023-03-26T01:51:29.443Z,99.90
2023-03-26T01:54:23.009Z,99.90
2023-03-26T01:57:13.822Z,99.90
2023-03-26T02:00:07.237Z,99.90
2023-03-26T02:03:18.622Z,99.90
2023-03-26T02:06:31.386Z,99.90
2023-03-26T02:09:24.865Z,99.90
2023-03-26T02:12:14.656Z,99.90
2023-03-26T02:15:01.965Z,99.90
2023-03-26T02:17:49.706Z,99.90
2023-03-26T02:20:36.971Z,99.90
2023-03-26T02:23:23.809Z,99.90
2023-03-26T02:26:11.430Z,99.90
2023-03-26T02:28:59.340Z,99.90
2023-03-26T02:31:48.547Z,99.90
2023-03-26T02:34:36.750Z,99.90
2023-03-26T02:37:23.596Z,99.90
2023-03-26T02:40:11.750Z,99.90
2023-03-26T02:42:58.818Z,99.90
2023-03-26T02:45:46.876Z,99.90
2023-03-26T02:48:34.822Z,99.90
2023-03-26T02:51:21.727Z,99.90
2023-03-26T02:54:08.645Z,99.90
2023-03-26T02:56:55.690Z,99.90
2023-03-26T02:59:42.724Z,99.90
2023-03-26T03:02:29.683Z,99.90
2023-03-26T03:05:18.498Z,99.90
2023-03-26T03:08:05.984Z,99.90
2023-03-26T03:10:56.756Z,99.90
2023-03-26T03:13:45.180Z,99.90
2023-03-26T03:16:32.950Z,99.90
2023-03-26T03:19:19.632Z,99.90
2023-03-26T03:22:06.454Z,99.90
2023-03-26T03:24:53.260Z,99.90
2023-03-26T03:27:41.621Z,99.90
2023-03-26T03:30:28.417Z,99.90
2023-03-26T03:33:15.481Z,99.90
2023-03-26T03:36:10.227Z,99.90
2023-03-26T03:39:07.050Z,99.90
2023-03-26T03:41:53.934Z,99.90
2023-03-26T03:44:40.741Z,99.90
2023-03-26T03:47:27.598Z,99.90
2023-03-26T03:50:15.634Z,99.90
2023-03-26T03:53:03.087Z,99.90
2023-03-26T03:55:53.434Z,99.90
2023-03-26T03:58:41.734Z,99.90
2023-03-26T04:01:30.782Z,99.90
2023-03-26T04:04:17.938Z,99.90
2023-03-26T04:07:05.596Z,99.90
2023-03-26T04:09:52.654Z,99.90
2023-03-26T04:12:39.434Z,99.90
2023-03-26T04:15:26.268Z,99.90
2023-03-26T04:18:13.210Z,99.90
2023-03-26T04:21:03.228Z,99.90
2023-03-26T04:23:50.128Z,99.90
2023-03-26T04:26:37.038Z,99.90
2023-03-26T04:29:27.953Z,99.90
2023-03-26T04:32:20.809Z,99.90
2023-03-26T04:35:07.859Z,99.90
2023-03-26T04:37:54.885Z,99.90
2023-03-26T04:40:42.389Z,99.90
2023-03-26T04:43:31.200Z,99.90
2023-03-26T04:46:24.024Z,99.90
2023-03-26T04:49:10.960Z,99.90
2023-03-26T04:51:57.952Z,99.90
2023-03-26T04:54:45.660Z,99.90
2023-03-26T04:57:39.444Z,99.90
2023-03-26T05:00:26.486Z,99.90
2023-03-26T05:03:13.956Z,99.90
2023-03-26T05:06:02.127Z,99.90
2023-03-26T05:08:48.944Z,99.90
2023-03-26T05:11:35.711Z,99.90
2023-03-26T05:14:22.531Z,99.90
2023-03-26T05:17:15.187Z,99.90
2023-03-26T05:20:02.227Z,99.90
2023-03-26T05:22:50.225Z,99.90
2023-03-26T05:25:37.101Z,99.90
2023-03-26T05:28:25.466Z,99.90
2023-03-26T05:31:12.425Z,99.90
2023-03-26T05:34:00.628Z,99.90
2023-03-26T05:36:48.666Z,99.90
2023-03-26T05:39:35.623Z,99.90
2023-03-26T05:42:23.179Z,99.90
2023-03-26T05:45:11.684Z,99.90
2023-03-26T05:47:58.555Z,99.90
2023-03-26T05:50:47.408Z,99.90
2023-03-26T05:53:35.331Z,99.90
2023-03-26T05:56:22.223Z,99.90
2023-03-26T05:59:09.135Z,99.90
2023-03-26T06:01:55.958Z,99.90
2023-03-26T06:04:42.948Z,99.90
2023-03-26T06:07:29.939Z,99.90
2023-03-26T06:10:18.306Z,99.90
2023-03-26T06:13:06.090Z,99.90
2023-03-26T06:15:53.558Z,99.90
2023-03-26T06:18:41.066Z,99.90
2023-03-26T06:21:28.820Z,99.90
2023-03-26T06:24:16.604Z,99.90
2023-03-26T06:27:03.549Z,99.90
2023-03-26T06:29:50.325Z,99.90
2023-03-26T06:32:37.135Z,99.90
2023-03-26T06:35:24.602Z,99.90
2023-03-26T06:38:12.590Z,99.90
2023-03-26T06:41:06.857Z,99.90
2023-03-26T06:43:53.985Z,99.90
2023-03-26T06:46:40.808Z,99.90
2023-03-26T06:49:27.641Z,99.90
2023-03-26T06:52:14.461Z,99.90
2023-03-26T06:55:01.675Z,99.90
2023-03-26T06:57:49.903Z,99.90
2023-03-26T07:00:36.721Z,99.90
2023-03-26T07:03:24.145Z,99.90
2023-03-26T07:06:10.998Z,99.90
2023-03-26T07:08:57.836Z,99.90
2023-03-26T07:11:44.676Z,99.90
2023-03-26T07:14:32.663Z,99.90
2023-03-26T07:17:19.496Z,99.90
2023-03-26T07:20:08.097Z,99.90
2023-03-26T07:22:55.401Z,99.90
2023-03-26T07:25:42.671Z,99.90
2023-03-26T07:29:04.057Z,99.90
2023-03-26T07:32:01.605Z,99.90
2023-03-26T07:34:54.933Z,99.90
2023-03-26T07:37:41.653Z,99.90
2023-03-26T07:40:50.218Z,99.90
2023-03-26T07:43:39.954Z,99.90
2023-03-26T07:46:32.097Z,99.90
2023-03-26T07:49:21.220Z,99.90
2023-03-26T07:52:10.556Z,99.90
2023-03-26T07:54:57.877Z,99.90
2023-03-26T07:58:06.119Z,99.90
2023-03-26T08:01:03.991Z,99.90
2023-03-26T08:04:23.833Z,99.90
2023-03-26T08:07:25.881Z,99.90
2023-03-26T08:10:30.924Z,99.90
2023-03-26T08:13:38.704Z,99.90
2023-03-26T08:16:31.951Z,99.90
2023-03-26T08:19:25.379Z,99.90
2023-03-26T08:22:20.870Z,99.90
2023-03-26T08:25:27.696Z,99.90
2023-03-26T08:28:20.209Z,99.90
2023-03-26T08:31:11.261Z,99.90
2023-03-26T08:33:58.337Z,99.90
2023-03-26T08:36:46.093Z,99.90
2023-03-26T08:39:32.849Z,99.90
2023-03-26T08:42:19.615Z,99.90
2023-03-26T08:45:44.054Z,99.90
2023-03-26T08:48:45.482Z,99.90
2023-03-26T08:51:57.666Z,99.90
2023-03-26T08:54:55.604Z,99.90
2023-03-26T08:57:59.014Z,99.90
2023-03-26T09:01:08.526Z,99.90
2023-03-26T09:04:13.158Z,99.90
2023-03-26T09:07:06.978Z,99.90
2023-03-26T09:10:09.449Z,99.90
2023-03-26T09:13:26.359Z,99.90
2023-03-26T09:16:31.253Z,99.90
2023-03-26T09:19:49.947Z,99.90
2023-03-26T09:23:01.348Z,99.90
2023-03-26T09:25:54.145Z,99.90
2023-03-26T09:29:05.935Z,99.90
2023-03-26T09:32:07.761Z,99.90
2023-03-26T09:35:32.810Z,99.90
2023-03-26T09:38:34.715Z,99.90
2023-03-26T09:41:46.260Z,99.90
2023-03-26T09:44:38.884Z,99.90
2023-03-26T09:47:56.536Z,99.90
2023-03-26T09:50:48.515Z,99.90
2023-03-26T09:54:06.082Z,99.90
2023-03-26T09:57:14.391Z,99.90
2023-03-26T10:00:28.047Z,99.90
2023-03-26T10:03:28.057Z,99.90
2023-03-26T10:06:35.568Z,99.90
2023-03-26T10:09:43.018Z,99.90
2023-03-26T10:13:14.507Z,99.90
2023-03-26T10:16:18.021Z,99.90
2023-03-26T10:19:38.611Z,99.90
2023-03-26T10:22:41.095Z,99.90
2023-03-26T10:25:46.837Z,99.90
2023-03-26T10:29:01.188Z,99.90
2023-03-26T10:32:09.844Z,99.90
2023-03-26T10:35:18.135Z,99.90
2023-03-26T10:38:28.140Z,99.90
2023-03-26T10:41:28.101Z,99.90
2023-03-26T10:44:33.658Z,99.90
2023-03-26T10:47:58.204Z,99.90
2023-03-26T10:51:17.943Z,99.90
2023-03-26T10:54:20.232Z,99.90
2023-03-26T10:57:21.756Z,99.90
2023-03-26T11:00:29.160Z,99.90
2023-03-26T11:03:37.100Z,99.90
2023-03-26T11:07:04.979Z,99.90
2023-03-26T11:10:06.299Z,99.90
2023-03-26T11:13:13.335Z,99.90
2023-03-26T11:16:19.041Z,99.90
2023-03-26T11:19:25.899Z,99.90
2023-03-26T11:22:53.139Z,99.90
2023-03-26T11:25:58.833Z,99.90
2023-03-26T11:29:04.390Z,98.00
2023-03-26T11:32:14.499Z,99.30
2023-03-26T11:35:11.172Z,99.40
2023-03-26T11:38:02.540Z,99.90
2023-03-26T11:40:54.166Z,99.90
2023-03-26T11:43:41.337Z,99.70
2023-03-26T11:46:28.691Z,98.70
2023-03-26T11:49:20.264Z,99.00
2023-03-26T11:52:10.089Z,98.00
2023-03-26T11:54:58.508Z,96.80
2023-03-26T11:57:53.758Z,97.80
2023-03-26T12:00:40.715Z,98.70
2023-03-26T12:03:30.340Z,98.10
2023-03-26T12:06:27.067Z,97.90
2023-03-26T12:09:18.715Z,97.60
2023-03-26T12:12:06.819Z,99.90
2023-03-26T12:14:54.208Z,98.80
2023-03-26T12:17:42.218Z,99.90
2023-03-26T12:20:29.077Z,99.90
2023-03-26T12:23:42.452Z,99.90
2023-03-26T12:26:48.931Z,99.90
2023-03-26T12:29:35.747Z,99.90
2023-03-26T12:32:29.751Z,99.90
2023-03-26T12:35:29.275Z,99.90
2023-03-26T12:38:35.683Z,99.90
2023-03-26T12:44:42.053Z,99.90
2023-03-26T12:44:58.862Z,99.90
2023-03-26T12:47:59.789Z,99.90
2023-03-26T12:51:13.190Z,99.90
2023-03-26T12:54:18.368Z,99.90
2023-03-26T12:57:18.334Z,99.90
2023-03-26T13:00:14.573Z,99.90
2023-03-26T13:03:20.509Z,99.90
2023-03-26T13:06:13.941Z,99.90
2023-03-26T13:09:33.322Z,99.90
2023-03-26T13:12:54.216Z,99.90
2023-03-26T13:16:13.034Z,99.90
2023-03-26T13:19:05.061Z,99.90
2023-03-26T13:22:19.289Z,99.90
2023-03-26T13:25:15.541Z,99.90
2023-03-26T13:28:26.918Z,99.90
2023-03-26T13:31:23.257Z,99.90
2023-03-26T13:34:54.893Z,99.90
2023-03-26T13:37:49.708Z,99.90
2023-03-26T13:41:06.984Z,99.90
2023-03-26T13:43:56.603Z,99.90
2023-03-26T13:46:48.830Z,99.90
2023-03-26T13:50:06.335Z,99.90
2023-03-26T13:52:58.891Z,99.90
2023-03-26T13:55:52.879Z,99.90
2023-03-26T13:58:54.293Z,99.90
2023-03-26T14:01:48.706Z,99.90
2023-03-26T14:04:46.461Z,99.90
2023-03-26T14:07:57.343Z,99.90
2023-03-26T14:10:51.787Z,99.90
2023-03-26T14:14:04.268Z,99.90
2023-03-26T14:16:57.916Z,99.90
2023-03-26T14:20:06.491Z,99.90
2023-03-26T14:23:35.037Z,99.90
2023-03-26T14:26:34.095Z,99.90
2023-03-26T14:29:31.445Z,99.90
2023-03-26T14:32:49.419Z,99.90
2023-03-26T14:35:54.790Z,99.90
2023-03-26T14:39:06.540Z,99.90
2023-03-26T14:42:01.284Z,99.90
2023-03-26T14:44:51.303Z,99.90
2023-03-26T14:47:47.192Z,99.90
2023-03-26T14:50:55.162Z,99.90
2023-03-26T14:53:48.826Z,99.90
2023-03-26T14:57:04.837Z,99.90
2023-03-26T15:00:15.826Z,99.90
2023-03-26T15:03:21.706Z,99.90
2023-03-26T15:06:42.332Z,99.90
2023-03-26T15:10:00.635Z,99.90
2023-03-26T15:13:35.280Z,99.90
2023-03-26T15:16:43.690Z,99.90
2023-03-26T15:19:58.443Z,99.90
2023-03-26T15:23:18.763Z,99.90
2023-03-26T15:26:11.320Z,99.90
2023-03-26T15:29:10.889Z,99.90
2023-03-26T15:31:57.732Z,99.90
2023-03-26T15:35:05.948Z,99.90
2023-03-26T15:38:23.210Z,99.90
2023-03-26T15:41:51.141Z,99.90
2023-03-26T15:45:03.354Z,99.90
2023-03-26T15:48:12.542Z,99.90
2023-03-26T15:51:06.301Z,99.90
2023-03-26T15:54:29.509Z,99.90
2023-03-26T15:57:26.708Z,99.90
2023-03-26T16:00:22.748Z,99.90
2023-03-26T16:03:20.413Z,99.90
2023-03-26T16:06:51.831Z,99.90
2023-03-26T16:10:12.604Z,99.90
2023-03-26T16:13:18.240Z,99.90
2023-03-26T16:16:06.893Z,99.90
2023-03-26T16:19:18.169Z,99.90
2023-03-26T16:22:30.169Z,99.90
2023-03-26T16:25:54.226Z,99.90
2023-03-26T16:28:46.984Z,99.90
2023-03-26T16:31:37.901Z,99.90
2023-03-26T16:34:30.223Z,99.90
2023-03-26T16:37:33.694Z,99.90
2023-03-26T16:40:27.740Z,99.90
2023-03-26T16:43:24.305Z,99.90
2023-03-26T16:46:33.070Z,99.90
2023-03-26T16:49:47.085Z,99.90
2023-03-26T16:53:15.723Z,99.90
2023-03-26T16:56:12.500Z,99.90
2023-03-26T16:59:26.758Z,99.90
2023-03-26T17:02:48.034Z,99.90
2023-03-26T17:05:35.101Z,99.90
2023-03-26T17:08:42.087Z,99.90
2023-03-26T17:11:49.240Z,99.90
2023-03-26T17:15:07.462Z,99.90
2023-03-26T17:18:00.063Z,99.90
2023-03-26T17:21:01.997Z,99.90
2023-03-26T17:24:18.624Z,99.90
2023-03-26T17:27:47.096Z,99.90
2023-03-26T17:31:11.588Z,99.90
2023-03-26T17:34:36.970Z,99.90
2023-03-26T17:37:23.764Z,99.90
2023-03-26T17:40:43.492Z,99.90
2023-03-26T17:43:42.250Z,99.90
2023-03-26T17:46:41.313Z,99.90
2023-03-26T17:49:32.021Z,99.90
2023-03-26T17:52:30.084Z,99.90
2023-03-26T17:55:21.001Z,99.90
2023-03-26T17:59:12.383Z,99.90
2023-03-26T18:02:03.597Z,99.90
2023-03-26T18:04:53.760Z,99.90
2023-03-26T18:07:46.670Z,99.90
2023-03-26T18:10:59.277Z,99.90
2023-03-26T18:13:52.921Z,99.90
2023-03-26T18:16:52.069Z,99.90
2023-03-26T18:19:52.855Z,99.90
2023-03-26T18:22:40.867Z,99.90
2023-03-26T18:25:32.630Z,99.90
2023-03-26T18:28:30.615Z,99.90
2023-03-26T18:31:18.708Z,99.90
2023-03-26T18:34:14.097Z,99.90
2023-03-26T18:37:27.391Z,99.90
2023-03-26T18:40:22.754Z,99.90
2023-03-26T18:43:32.507Z,99.90
2023-03-26T18:46:24.173Z,99.90
2023-03-26T18:49:17.200Z,99.90
2023-03-26T18:52:21.173Z,99.90
2023-03-26T18:55:13.543Z,99.90
2023-03-26T18:58:09.937Z,99.90
2023-03-26T19:01:05.949Z,99.90
2023-03-26T19:03:55.360Z,99.90
2023-03-26T19:06:44.968Z,99.90
2023-03-26T19:09:33.261Z,99.90
2023-03-26T19:12:30.616Z,99.90
2023-03-26T19:15:20.681Z,99.90
2023-03-26T19:18:14.525Z,99.90
2023-03-26T19:21:05.975Z,99.90
2023-03-26T19:23:55.871Z,99.90
2023-03-26T19:26:44.087Z,99.90
2023-03-26T19:29:35.771Z,99.90
2023-03-26T19:32:34.648Z,99.90
2023-03-26T19:35:44.130Z,99.90
2023-03-26T19:38:47.850Z,99.90
2023-03-26T19:41:39.254Z,99.90
2023-03-26T19:44:29.178Z,99.90
2023-03-26T19:47:24.940Z,99.90
2023-03-26T19:50:28.027Z,99.90
2023-03-26T19:53:25.613Z,99.90
2023-03-26T19:56:15.369Z,99.90
2023-03-26T19:59:04.301Z,99.90
2023-03-26T20:01:51.904Z,99.90
2023-03-26T20:04:39.406Z,99.90
2023-03-26T20:07:35.728Z,99.90
2023-03-26T20:10:24.398Z,99.90
2023-03-26T20:13:16.812Z,99.90
2023-03-26T20:16:29.359Z,99.90
2023-03-26T20:19:24.999Z,99.90
2023-03-26T20:22:27.094Z,99.90
2023-03-26T20:25:30.906Z,99.90
2023-03-26T20:28:19.943Z,99.90
2023-03-26T20:31:15.712Z,99.90
2023-03-26T20:34:03.683Z,99.90
2023-03-26T20:37:01.280Z,99.90
2023-03-26T20:39:48.894Z,99.90
2023-03-26T20:42:36.219Z,99.90
2023-03-26T20:45:24.109Z,99.90
2023-03-26T20:48:11.957Z,99.90
2023-03-26T20:50:59.181Z,99.90
2023-03-26T20:53:49.159Z,99.90
2023-03-26T20:56:37.677Z,99.90
2023-03-26T20:59:29.379Z,99.90
2023-03-26T21:02:16.275Z,99.90
2023-03-26T21:05:09.313Z,99.90
2023-03-26T21:08:00.515Z,99.90
2023-03-26T21:10:48.181Z,99.90
2023-03-26T21:13:45.097Z,99.90
2023-03-26T21:16:32.554Z,99.90
2023-03-26T21:19:20.312Z,99.90
2023-03-26T21:22:39.704Z,99.90
2023-03-26T21:25:35.727Z,99.90
2023-03-26T21:28:39.730Z,99.90
2023-03-26T21:31:31.553Z,99.90
2023-03-26T21:34:20.009Z,99.90
2023-03-26T21:37:07.961Z,99.90
2023-03-26T21:39:55.108Z,99.90
2023-03-26T21:42:43.310Z,99.90
2023-03-26T21:45:30.996Z,99.90
2023-03-26T21:48:18.269Z,99.90
2023-03-26T21:51:05.716Z,99.90
2023-03-26T21:53:53.499Z,99.90
2023-03-26T21:56:50.470Z,99.90
2023-03-26T21:59:52.826Z,99.90
2023-03-26T22:02:57.100Z,99.90
2023-03-26T22:06:09.492Z,99.90
2023-03-26T22:08:56.482Z,99.90
2023-03-26T22:11:43.417Z,99.90
2023-03-26T22:14:30.319Z,99.90
2023-03-26T22:17:17.192Z,99.90
2023-03-26T22:20:07.339Z,99.90
2023-03-26T22:22:55.269Z,99.90
2023-03-26T22:25:42.408Z,99.90
2023-03-26T22:28:30.147Z,99.90
2023-03-26T22:31:17.786Z,99.90
2023-03-26T22:34:04.930Z,99.90
2023-03-26T22:36:53.025Z,99.90
2023-03-26T22:39:40.167Z,99.90
2023-03-26T22:42:27.521Z,99.90
2023-03-26T22:45:14.784Z,99.90
2023-03-26T22:48:04.578Z,99.90
2023-03-26T22:50:58.569Z,99.90
2023-03-26T22:53:45.927Z,99.90
2023-03-26T22:56:33.121Z,99.90
2023-03-26T22:59:20.137Z,99.90
2023-03-26T23:02:07.412Z,99.90
2023-03-26T23:04:54.581Z,99.90
2023-03-26T23:07:42.593Z,99.90
2023-03-26T23:10:30.261Z,99.90
2023-03-26T23:13:17.235Z,99.90
2023-03-26T23:16:04.726Z,99.90
2023-03-26T23:18:51.649Z,99.90
2023-03-26T23:21:38.555Z,99.90
2023-03-26T23:24:30.206Z,99.90
2023-03-26T23:27:17.146Z,99.90
2023-03-26T23:30:10.972Z,99.90
2023-03-26T23:32:58.131Z,99.90
2023-03-26T23:35:45.021Z,99.90
2023-03-26T23:38:43.857Z,99.90
2023-03-26T23:41:31.469Z,99.90
2023-03-26T23:44:18.351Z,99.90
2023-03-26T23:47:10.370Z,99.90
2023-03-26T23:49:57.213Z,99.90
2023-03-26T23:52:46.050Z,99.90
2023-03-26T23:55:36.324Z,99.90
2023-03-26T23:58:24.639Z,99.90
